Mentone, IN (46539)

12:54 PM EDT on August 29, 2015 (GMT -0400)
Birch Rd. Observatory | | Change Station
CLOSE
Current Station
Personal Weather Station
Location: Mentone, IN
Elevation: 827 ft
Nearby Weather Stations

Elev 827 ft 41.18 °N, 86.08 °W | Updated 3 minutes ago

Overcast
Overcast
74.1 °F
Feels Like 75 °F
N
0.8
Wind Variable Wind from SSE
Gusts 3.5 mph

Today
High -- | Low -- °F
--% Chance of Precip.
Yesterday
High -- | Low -- °F
Precip. -- in
7:07 AM 8:22 PM
Full, 100% visible
Pressure 30.09 in
Visibility 7.0 miles
Clouds Clear
Heat Index 75 °F
Dew Point 67 °F
Humidity 79%
Rainfall 0.00 in
Snow Depth Not available.
UV 9 out of 12
Pollen 4.20 out of 12
Air Quality Not available.
Flu Activity Not available.
METAR KRCR 291635Z AUTO 21008KT 7SM CLR 26/18 A3009 RMK AO2 LTG DSNT W
Pressure 30.09 in
Visibility 7.0 miles
Clouds Clear
Heat Index 75 °F
Dew Point 67 °F
Humidity 79%
Rainfall 0.00 in
Snow Depth Not available.
UV 9 out of 12
Pollen 4.20 out of 12
Air Quality Not available.
Flu Activity Not available.
METAR KRCR 291635Z AUTO 21008KT 7SM CLR 26/18 A3009 RMK AO2 LTG DSNT W

10-Day Weather Forecast

×

Almanac

Astronomy

Aug. 29, 2015 Rise Set
Actual Time
Civil Twilight
Nautical Twilight
Astronomical Twilight
Moon
Length of Visible Light
Length of Day
Tomorrow will be .
, % of the Moon is Illuminated

Today's Extremes

State Highs State Lows

Community

WunderPhotos

Upload Photos

1,850,722 photos uploaded!

WunderBlogs® & News

Nearby

Air Quality

  Air Quality AQ Index Pollutant
Not available.

Snow Depth

Station Depth Elevation

Earthquake Activity

City Distance Mag. Time & Date
Minimum magnitude displayed is 2.5.

Coastal Water Temperatures

Place Temperature

Stations

Nearby Weather Stations

Station Location Temp. Windchill Dew Point Humidity Wind Precip. Elev Updated Type